Time;durP1;ratioP1;P1;durP2;ratioP2;P2;SDS_P1;SDS_P2;PMS_P1;PMS_P2;Temp;Humidity;BMP_temperature;BMP_pressure;BME280_temperature;BME280_humidity;BME280_pressure;Samples;Min_cycle;Max_cycle;Signal;HPM_P1;HPM_P2
2021/07/23 00:00:20;;;;;;;;;;;12.10;99.90;;;;;;5074727;28;20340;-66
2021/07/23 00:02:46;;;;;;;;;;;12.30;99.90;;;;;;5074725;28;19912;-66
2021/07/23 00:05:13;;;;;;;;;;;12.50;99.90;;;;;;5074788;28;19916;-68
2021/07/23 00:07:40;;;;;;;;;;;12.60;99.90;;;;;;5074373;28;19908;-67
2021/07/23 00:10:07;;;;;;;;;;;12.80;99.90;;;;;;5074819;28;20015;-67
2021/07/23 00:12:33;;;;;;;;;;;12.80;99.90;;;;;;5074853;28;19909;-68
2021/07/23 00:15:00;;;;;;;;;;;13.00;99.90;;;;;;5074867;28;19913;-66
2021/07/23 00:17:26;;;;;;;;;;;13.10;99.90;;;;;;5074515;28;19916;-65
2021/07/23 00:19:53;;;;;;;;;;;13.10;99.90;;;;;;5074145;28;20018;-68
2021/07/23 00:22:20;;;;;;;;;;;13.10;99.90;;;;;;5074634;28;19908;-66
2021/07/23 00:24:46;;;;;;;;;;;13.00;99.90;;;;;;5074359;28;19912;-68
2021/07/23 00:27:14;;;;;;;;;;;13.00;99.90;;;;;;5074343;28;19992;-67
2021/07/23 00:29:42;;;;;;;;;;;13.00;99.90;;;;;;5073980;28;20252;-66
2021/07/23 00:32:08;;;;;;;;;;;13.00;99.90;;;;;;5074216;28;19998;-65
2021/07/23 00:34:35;;;;;;;;;;;13.00;99.90;;;;;;5074389;28;20003;-65
2021/07/23 00:37:02;;;;;;;;;;;13.00;99.90;;;;;;5074107;28;20370;-65
2021/07/23 00:39:28;;;;;;;;;;;13.00;99.90;;;;;;5073920;28;19916;-67
2021/07/23 00:41:55;;;;;;;;;;;13.10;99.90;;;;;;5074169;28;19998;-66
2021/07/23 00:44:22;;;;;;;;;;;13.10;99.90;;;;;;5073787;28;19924;-67
2021/07/23 00:46:48;;;;;;;;;;;13.20;99.90;;;;;;5073999;28;19915;-66
2021/07/23 00:49:15;;;;;;;;;;;13.40;99.90;;;;;;5073892;28;19908;-66
2021/07/23 00:51:43;;;;;;;;;;;13.60;99.90;;;;;;5073825;28;20279;-66
2021/07/23 00:54:10;;;;;;;;;;;13.60;99.90;;;;;;5074021;28;19908;-67
2021/07/23 00:56:37;;;;;;;;;;;13.60;99.90;;;;;;5074065;28;19912;-67
2021/07/23 00:59:04;;;;;;;;;;;13.60;99.90;;;;;;5073420;28;19917;-66
2021/07/23 01:01:30;;;;;;;;;;;13.60;99.90;;;;;;5073340;28;19947;-66
2021/07/23 01:03:58;;;;;;;;;;;13.70;99.90;;;;;;5072834;28;19916;-66
2021/07/23 01:06:24;;;;;;;;;;;13.60;99.90;;;;;;5073631;28;19909;-67
2021/07/23 01:08:51;;;;;;;;;;;13.60;99.90;;;;;;5073340;28;19936;-67
2021/07/23 01:11:18;;;;;;;;;;;13.60;99.90;;;;;;5073558;28;19962;-68
2021/07/23 01:13:45;;;;;;;;;;;13.60;99.90;;;;;;5073314;28;19991;-68
2021/07/23 01:16:11;;;;;;;;;;;13.60;99.90;;;;;;5073482;28;19908;-66
2021/07/23 01:18:38;;;;;;;;;;;13.70;99.90;;;;;;5071896;28;19920;-67
2021/07/23 01:21:05;;;;;;;;;;;13.70;99.90;;;;;;5073452;28;19928;-68
2021/07/23 01:23:33;;;;;;;;;;;13.80;99.90;;;;;;5073084;28;20081;-66
2021/07/23 01:26:00;;;;;;;;;;;13.80;99.90;;;;;;5073124;28;20428;-66
2021/07/23 01:28:28;;;;;;;;;;;13.80;99.90;;;;;;5073081;28;20319;-67
2021/07/23 01:30:55;;;;;;;;;;;13.90;99.90;;;;;;5073201;28;19915;-65
2021/07/23 01:33:21;;;;;;;;;;;14.10;99.90;;;;;;5073055;28;19908;-66
2021/07/23 01:35:48;;;;;;;;;;;14.20;99.90;;;;;;5072828;28;19909;-66
2021/07/23 01:38:15;;;;;;;;;;;14.30;99.90;;;;;;5072760;28;19922;-66
2021/07/23 01:40:42;;;;;;;;;;;14.40;99.90;;;;;;5072921;28;19908;-65
2021/07/23 01:43:09;;;;;;;;;;;14.60;99.70;;;;;;5072619;28;19912;-66
2021/07/23 01:45:35;;;;;;;;;;;14.70;99.90;;;;;;5072692;28;20347;-66
2021/07/23 01:48:02;;;;;;;;;;;14.90;99.70;;;;;;5072912;28;19909;-66
2021/07/23 01:50:29;;;;;;;;;;;15.00;99.30;;;;;;5072804;28;20323;-66
2021/07/23 01:52:56;;;;;;;;;;;15.00;99.00;;;;;;5072767;28;19928;-67
2021/07/23 01:55:22;;;;;;;;;;;14.90;98.90;;;;;;5072847;28;19909;-67
2021/07/23 01:57:49;;;;;;;;;;;14.70;99.30;;;;;;5072482;28;19913;-66
2021/07/23 02:00:16;;;;;;;;;;;14.80;99.10;;;;;;5072616;28;19909;-68
2021/07/23 02:02:43;;;;;;;;;;;14.90;99.50;;;;;;5072657;28;19909;-69
2021/07/23 02:05:10;;;;;;;;;;;15.00;98.80;;;;;;5072533;28;19909;-68
2021/07/23 02:07:36;;;;;;;;;;;15.00;98.80;;;;;;5072208;28;19913;-68
2021/07/23 02:10:05;;;;;;;;;;;15.10;98.50;;;;;;5072385;28;19954;-68
2021/07/23 02:12:31;;;;;;;;;;;15.10;98.20;;;;;;5072427;28;20373;-68
2021/07/23 02:14:58;;;;;;;;;;;15.20;98.70;;;;;;5072279;28;19947;-68
2021/07/23 02:17:25;;;;;;;;;;;15.40;97.90;;;;;;5072444;28;19916;-69
2021/07/23 02:19:51;;;;;;;;;;;15.30;97.70;;;;;;5072206;28;19908;-69
2021/07/23 02:22:18;;;;;;;;;;;15.30;98.00;;;;;;5072298;28;19908;-68
2021/07/23 02:24:45;;;;;;;;;;;15.40;97.70;;;;;;5072510;28;19966;-68
2021/07/23 02:27:11;;;;;;;;;;;15.50;97.00;;;;;;5072183;28;19916;-66
2021/07/23 02:29:38;;;;;;;;;;;15.40;96.90;;;;;;5072019;28;20335;-66
2021/07/23 02:32:05;;;;;;;;;;;15.40;97.70;;;;;;5072298;28;19916;-66
2021/07/23 02:34:32;;;;;;;;;;;15.40;97.30;;;;;;5072168;28;19908;-65
2021/07/23 02:36:59;;;;;;;;;;;15.40;97.50;;;;;;5072165;28;20276;-66
2021/07/23 02:39:26;;;;;;;;;;;15.40;97.30;;;;;;5072263;28;19912;-66
2021/07/23 02:41:52;;;;;;;;;;;15.50;97.00;;;;;;5072121;28;19908;-66
2021/07/23 02:44:19;;;;;;;;;;;15.50;97.10;;;;;;5071876;28;19921;-65
2021/07/23 02:46:46;;;;;;;;;;;15.50;97.10;;;;;;5072101;28;19908;-66
2021/07/23 02:49:12;;;;;;;;;;;15.40;97.30;;;;;;5072234;28;19997;-66
2021/07/23 02:51:39;;;;;;;;;;;15.40;97.20;;;;;;5071889;28;19909;-67
2021/07/23 02:54:06;;;;;;;;;;;15.40;97.90;;;;;;5072110;28;20339;-66
2021/07/23 02:56:32;;;;;;;;;;;15.40;96.90;;;;;;5072200;28;20377;-66
2021/07/23 02:58:59;;;;;;;;;;;15.30;97.00;;;;;;5072198;28;19970;-67
2021/07/23 03:01:25;;;;;;;;;;;15.30;96.70;;;;;;5071959;28;19913;-67
2021/07/23 03:03:52;;;;;;;;;;;15.30;97.20;;;;;;5072011;28;19908;-66
2021/07/23 03:06:19;;;;;;;;;;;15.20;97.30;;;;;;5072152;28;20251;-66
2021/07/23 03:08:46;;;;;;;;;;;15.20;97.10;;;;;;5071750;28;20402;-66
2021/07/23 03:11:13;;;;;;;;;;;15.10;97.10;;;;;;5072015;28;19909;-66
2021/07/23 03:13:39;;;;;;;;;;;15.10;98.00;;;;;;5071571;28;19912;-66
2021/07/23 03:16:14;;;;;;;;;;;15.20;98.00;;;;;;5071985;28;19909;-66
2021/07/23 03:18:41;;;;;;;;;;;15.20;97.80;;;;;;5071675;28;20329;-66
2021/07/23 03:21:08;;;;;;;;;;;15.10;98.20;;;;;;5071584;28;19912;-65
2021/07/23 03:23:35;;;;;;;;;;;15.20;97.30;;;;;;5071506;28;19912;-64
2021/07/23 03:26:05;;;;;;;;;;;15.20;97.50;;;;;;5071715;28;19909;-65
2021/07/23 03:28:32;;;;;;;;;;;15.30;97.70;;;;;;5074224;28;19964;-64
2021/07/23 03:30:59;;;;;;;;;;;15.20;97.40;;;;;;5075236;28;19912;-65
2021/07/23 03:33:26;;;;;;;;;;;15.30;97.60;;;;;;5075422;28;19995;-65
2021/07/23 03:35:52;;;;;;;;;;;15.20;97.40;;;;;;5075007;28;20413;-64
2021/07/23 03:38:19;;;;;;;;;;;15.20;97.70;;;;;;5075033;28;20354;-65
2021/07/23 03:40:46;;;;;;;;;;;15.20;97.90;;;;;;5075225;28;19909;-65
2021/07/23 03:43:12;;;;;;;;;;;15.20;98.20;;;;;;5074952;28;19919;-65
2021/07/23 03:45:39;;;;;;;;;;;15.20;98.30;;;;;;5074926;28;19908;-65
2021/07/23 03:48:06;;;;;;;;;;;15.10;99.00;;;;;;5075024;28;19915;-65
2021/07/23 03:50:32;;;;;;;;;;;15.10;99.20;;;;;;5075101;28;20003;-65
2021/07/23 03:52:59;;;;;;;;;;;15.00;99.70;;;;;;5074825;28;19947;-66
2021/07/23 03:55:25;;;;;;;;;;;14.90;99.90;;;;;;5075049;28;19916;-65
2021/07/23 03:57:52;;;;;;;;;;;14.90;99.90;;;;;;5074663;28;19931;-65
2021/07/23 04:00:19;;;;;;;;;;;14.80;99.90;;;;;;5074974;28;20381;-65
2021/07/23 04:02:45;;;;;;;;;;;14.80;99.90;;;;;;5074897;28;19908;-66
2021/07/23 04:05:12;;;;;;;;;;;14.70;99.90;;;;;;5074945;28;19908;-65
2021/07/23 04:07:39;;;;;;;;;;;14.70;99.90;;;;;;5074514;28;19908;-65
2021/07/23 04:10:06;;;;;;;;;;;14.70;99.90;;;;;;5074778;28;19965;-65
2021/07/23 04:12:32;;;;;;;;;;;14.80;99.90;;;;;;5074845;28;19916;-66
2021/07/23 04:15:01;;;;;;;;;;;14.70;99.90;;;;;;5074667;28;19919;-66
2021/07/23 04:17:27;;;;;;;;;;;14.70;99.90;;;;;;5073328;28;19916;-66
2021/07/23 04:19:54;;;;;;;;;;;14.70;99.90;;;;;;5074268;28;20007;-66
2021/07/23 04:22:20;;;;;;;;;;;14.60;99.90;;;;;;5074425;28;20398;-66
2021/07/23 04:24:47;;;;;;;;;;;14.60;99.90;;;;;;5074588;28;19976;-65
2021/07/23 04:27:14;;;;;;;;;;;14.60;99.90;;;;;;5074673;28;19915;-67
2021/07/23 04:29:44;;;;;;;;;;;14.50;99.90;;;;;;5074188;28;19999;-66
2021/07/23 04:32:11;;;;;;;;;;;14.40;99.90;;;;;;5074397;28;19908;-66
2021/07/23 04:34:37;;;;;;;;;;;14.40;99.90;;;;;;5074251;28;20336;-67
2021/07/23 04:37:04;;;;;;;;;;;14.40;99.90;;;;;;5073974;28;19948;-68
2021/07/23 04:39:31;;;;;;;;;;;14.30;99.90;;;;;;5074130;28;20313;-66
2021/07/23 04:41:57;;;;;;;;;;;14.30;99.90;;;;;;5074237;28;19916;-67
2021/07/23 04:44:24;;;;;;;;;;;14.30;99.90;;;;;;5073907;28;20409;-66
2021/07/23 04:46:51;;;;;;;;;;;14.30;99.90;;;;;;5074146;28;20396;-67
2021/07/23 04:49:18;;;;;;;;;;;14.20;99.90;;;;;;5073942;28;19919;-67
2021/07/23 04:51:45;;;;;;;;;;;14.10;99.90;;;;;;5073334;28;20287;-65
2021/07/23 04:54:11;;;;;;;;;;;14.00;99.90;;;;;;5073837;28;19909;-66
2021/07/23 04:56:38;;;;;;;;;;;13.90;99.90;;;;;;5073817;28;19909;-66
2021/07/23 04:59:05;;;;;;;;;;;13.80;99.90;;;;;;5073637;28;19920;-66
2021/07/23 05:01:31;;;;;;;;;;;13.70;99.90;;;;;;5073611;28;19948;-67
2021/07/23 05:03:59;;;;;;;;;;;13.50;99.90;;;;;;5073764;28;19940;-67
2021/07/23 05:06:27;;;;;;;;;;;13.40;99.90;;;;;;5073716;28;20003;-67
2021/07/23 05:08:53;;;;;;;;;;;13.30;99.90;;;;;;5073760;28;19954;-66
2021/07/23 05:11:20;;;;;;;;;;;13.30;99.90;;;;;;5072335;28;19962;-68
2021/07/23 05:13:47;;;;;;;;;;;13.20;99.90;;;;;;5073271;28;19917;-68
2021/07/23 05:16:14;;;;;;;;;;;13.20;99.90;;;;;;5073528;28;19909;-68
2021/07/23 05:18:41;;;;;;;;;;;13.20;99.90;;;;;;5073392;28;20275;-65
2021/07/23 05:21:12;;;;;;;;;;;13.20;99.90;;;;;;5073120;28;19917;-66
2021/07/23 05:23:42;;;;;;;;;;;13.20;99.90;;;;;;5073130;28;19914;-65
2021/07/23 05:26:10;;;;;;;;;;;13.10;99.90;;;;;;5073043;28;19908;-65
2021/07/23 05:28:36;;;;;;;;;;;13.20;99.90;;;;;;5073313;28;20011;-65
2021/07/23 05:31:03;;;;;;;;;;;13.20;99.90;;;;;;5073101;28;19915;-65
2021/07/23 05:33:30;;;;;;;;;;;13.20;99.90;;;;;;5073418;28;19916;-65
2021/07/23 05:35:59;;;;;;;;;;;13.30;99.90;;;;;;5072994;28;19909;-65
2021/07/23 05:38:26;;;;;;;;;;;13.30;99.90;;;;;;5072867;28;20011;-65
2021/07/23 05:40:52;;;;;;;;;;;13.30;99.90;;;;;;5073026;28;20399;-66
2021/07/23 05:43:19;;;;;;;;;;;13.40;99.90;;;;;;5072865;28;20003;-65
2021/07/23 05:45:46;;;;;;;;;;;13.40;99.90;;;;;;5072670;28;20007;-66
2021/07/23 05:48:13;;;;;;;;;;;13.40;99.90;;;;;;5072764;28;20271;-65
2021/07/23 05:50:39;;;;;;;;;;;13.40;99.90;;;;;;5072481;28;20282;-65
2021/07/23 05:53:06;;;;;;;;;;;13.40;99.90;;;;;;5073631;28;19915;-65
2021/07/23 05:55:33;;;;;;;;;;;13.50;99.90;;;;;;5074132;28;19916;-66
2021/07/23 05:57:59;;;;;;;;;;;13.50;99.90;;;;;;5073656;28;19939;-66
2021/07/23 06:00:26;;;;;;;;;;;13.50;99.90;;;;;;5073426;28;20351;-66
2021/07/23 06:02:54;;;;;;;;;;;13.60;99.90;;;;;;5073029;28;19913;-66
2021/07/23 06:05:21;;;;;;;;;;;13.60;99.90;;;;;;5072822;28;19909;-66
2021/07/23 06:07:47;;;;;;;;;;;13.60;99.90;;;;;;5072722;28;19978;-66
2021/07/23 06:10:14;;;;;;;;;;;13.60;99.90;;;;;;5072721;28;19931;-65
2021/07/23 06:12:41;;;;;;;;;;;13.50;99.90;;;;;;5072723;28;20001;-66
2021/07/23 06:15:08;;;;;;;;;;;13.50;99.90;;;;;;5072825;28;19912;-66
2021/07/23 06:17:34;;;;;;;;;;;13.50;99.90;;;;;;5072470;28;19912;-66
2021/07/23 06:20:01;;;;;;;;;;;13.50;99.90;;;;;;5072400;28;20058;-65
2021/07/23 06:22:27;;;;;;;;;;;13.50;99.90;;;;;;5073000;28;19948;-65
2021/07/23 06:24:56;;;;;;;;;;;13.50;99.90;;;;;;5072496;28;19916;-65
2021/07/23 06:27:23;;;;;;;;;;;13.40;99.90;;;;;;5072289;28;19908;-66
2021/07/23 06:29:53;;;;;;;;;;;13.40;99.90;;;;;;5072106;28;19947;-67
2021/07/23 06:32:20;;;;;;;;;;;13.50;99.90;;;;;;5072306;28;19912;-66
2021/07/23 06:34:47;;;;;;;;;;;13.50;99.90;;;;;;5072144;28;19918;-65
2021/07/23 06:37:20;;;;;;;;;;;13.50;99.90;;;;;;5072095;28;20374;-65
2021/07/23 06:39:47;;;;;;;;;;;13.50;99.90;;;;;;5071972;28;19998;-66
2021/07/23 06:42:15;;;;;;;;;;;13.40;99.90;;;;;;5072182;28;19908;-65
2021/07/23 06:44:42;;;;;;;;;;;13.40;99.90;;;;;;5072240;28;19985;-65
2021/07/23 06:47:09;;;;;;;;;;;13.50;99.90;;;;;;5072191;28;19997;-65
2021/07/23 06:49:36;;;;;;;;;;;13.50;99.90;;;;;;5071811;28;20258;-65
2021/07/23 06:52:03;;;;;;;;;;;13.50;99.90;;;;;;5072032;28;20325;-65
2021/07/23 06:54:29;;;;;;;;;;;13.50;99.90;;;;;;5072216;28;20539;-65
2021/07/23 06:56:56;;;;;;;;;;;13.60;99.90;;;;;;5072074;28;20386;-66
2021/07/23 06:59:23;;;;;;;;;;;13.70;99.90;;;;;;5070583;28;19916;-66
2021/07/23 07:01:50;;;;;;;;;;;13.70;99.90;;;;;;5071905;28;19999;-68
2021/07/23 07:04:16;;;;;;;;;;;13.70;99.90;;;;;;5075954;28;20008;-67
2021/07/23 07:06:43;;;;;;;;;;;13.80;99.90;;;;;;5074729;28;19912;-68
2021/07/23 07:09:10;;;;;;;;;;;13.80;99.90;;;;;;5075825;28;19913;-66
2021/07/23 07:11:36;;;;;;;;;;;13.80;99.90;;;;;;5075628;28;19916;-67
2021/07/23 07:14:04;;;;;;;;;;;13.80;99.90;;;;;;5075729;28;19938;-66
2021/07/23 07:16:31;;;;;;;;;;;13.90;99.90;;;;;;5074513;28;19947;-66
2021/07/23 07:18:58;;;;;;;;;;;14.00;99.90;;;;;;5075417;28;20371;-66
2021/07/23 07:21:24;;;;;;;;;;;13.90;99.90;;;;;;5075542;28;19969;-67
2021/07/23 07:23:51;;;;;;;;;;;13.90;99.90;;;;;;5075452;28;20276;-68
2021/07/23 07:26:18;;;;;;;;;;;14.00;99.90;;;;;;5075624;28;19915;-66
2021/07/23 07:28:44;;;;;;;;;;;14.00;99.90;;;;;;5075372;28;20316;-68
2021/07/23 07:31:14;;;;;;;;;;;13.90;99.90;;;;;;5075252;28;20047;-67
2021/07/23 07:33:41;;;;;;;;;;;13.90;99.90;;;;;;5075245;28;19915;-67
2021/07/23 07:36:08;;;;;;;;;;;14.00;99.90;;;;;;5075132;28;19916;-68
2021/07/23 07:38:36;;;;;;;;;;;13.90;99.90;;;;;;5075344;28;19916;-68
2021/07/23 07:41:03;;;;;;;;;;;13.90;99.90;;;;;;5072870;28;19955;-66
2021/07/23 07:43:30;;;;;;;;;;;13.90;99.90;;;;;;5072735;28;19925;-68
2021/07/23 07:45:57;;;;;;;;;;;13.90;99.90;;;;;;5073133;28;19909;-66
2021/07/23 07:48:23;;;;;;;;;;;13.90;99.90;;;;;;5072610;28;20374;-67
2021/07/23 07:50:50;;;;;;;;;;;13.90;99.90;;;;;;5073024;28;20026;-67
2021/07/23 07:53:17;;;;;;;;;;;13.90;99.90;;;;;;5105064;28;20367;-67
2021/07/23 07:55:43;;;;;;;;;;;13.80;99.90;;;;;;5072879;28;19909;-67
2021/07/23 07:58:10;;;;;;;;;;;13.80;99.90;;;;;;5072795;28;19916;-68
2021/07/23 08:00:37;;;;;;;;;;;13.80;99.90;;;;;;5072748;28;19923;-68
2021/07/23 08:03:04;;;;;;;;;;;13.90;99.90;;;;;;5073787;28;19942;-66
2021/07/23 08:05:30;;;;;;;;;;;13.90;99.90;;;;;;5072474;28;20005;-66
2021/07/23 08:07:59;;;;;;;;;;;13.90;99.90;;;;;;5072616;28;19967;-67
2021/07/23 08:10:26;;;;;;;;;;;13.90;99.90;;;;;;5072973;28;20348;-65
2021/07/23 08:12:53;;;;;;;;;;;13.90;99.90;;;;;;5072288;28;19947;-66
2021/07/23 08:15:20;;;;;;;;;;;13.90;99.90;;;;;;5072567;28;20286;-65
2021/07/23 08:17:47;;;;;;;;;;;13.90;99.90;;;;;;5072348;28;19963;-65
2021/07/23 08:20:14;;;;;;;;;;;13.90;99.90;;;;;;5072181;28;19998;-65
2021/07/23 08:22:41;;;;;;;;;;;13.90;99.90;;;;;;5072614;28;20012;-65
2021/07/23 08:25:07;;;;;;;;;;;13.90;99.90;;;;;;5072441;28;19927;-65
2021/07/23 08:27:34;;;;;;;;;;;13.90;99.90;;;;;;5072243;28;19916;-65
2021/07/23 08:30:02;;;;;;;;;;;13.90;99.90;;;;;;5072628;28;19916;-65
2021/07/23 08:32:34;;;;;;;;;;;13.90;99.90;;;;;;5071974;28;19924;-65
2021/07/23 08:35:00;;;;;;;;;;;13.90;99.90;;;;;;5072330;28;19908;-66
2021/07/23 08:37:27;;;;;;;;;;;13.90;99.90;;;;;;5070651;28;20366;-66
2021/07/23 08:39:54;;;;;;;;;;;13.90;99.90;;;;;;5071127;28;19924;-66
2021/07/23 08:42:38;;;;;;;;;;;13.90;99.90;;;;;;5090884;28;20640;-66
2021/07/23 08:45:06;;;;;;;;;;;13.90;99.90;;;;;;5092176;28;19928;-66
2021/07/23 08:47:36;;;;;;;;;;;14.00;99.90;;;;;;5092194;28;19999;-66
2021/07/23 08:50:03;;;;;;;;;;;13.90;99.90;;;;;;5091174;28;19966;-65
2021/07/23 08:52:43;;;;;;;;;;;13.90;99.90;;;;;;5092288;28;19908;-67
2021/07/23 08:55:12;;;;;;;;;;;13.80;99.90;;;;;;5092223;28;19915;-67
2021/07/23 08:57:38;;;;;;;;;;;13.80;99.90;;;;;;5092052;28;19999;-65
2021/07/23 09:00:06;;;;;;;;;;;13.80;99.90;;;;;;5090203;28;19923;-68
2021/07/23 09:02:51;;;;;;;;;;;13.80;99.90;;;;;;5092164;28;19914;-68
2021/07/23 09:05:18;;;;;;;;;;;13.80;99.90;;;;;;5092282;28;19939;-69
2021/07/23 09:07:44;;;;;;;;;;;13.80;99.90;;;;;;5093691;28;19915;-68
2021/07/23 09:10:12;;;;;;;;;;;13.80;99.90;;;;;;5093872;28;19909;-68
2021/07/23 09:12:46;;;;;;;;;;;13.80;99.90;;;;;;5093862;28;19908;-65
2021/07/23 09:15:26;;;;;;;;;;;13.90;99.90;;;;;;5093615;28;20278;-68
2021/07/23 09:17:53;;;;;;;;;;;13.90;99.90;;;;;;5090819;28;19948;-68
2021/07/23 09:20:26;;;;;;;;;;;13.90;99.90;;;;;;5073445;28;20355;-66
2021/07/23 09:22:58;;;;;;;;;;;13.80;99.90;;;;;;5073293;28;19909;-68
2021/07/23 09:25:33;;;;;;;;;;;13.80;99.90;;;;;;5072581;28;19909;-68
2021/07/23 09:28:00;;;;;;;;;;;13.80;99.90;;;;;;5072695;28;19919;-68
2021/07/23 09:30:45;;;;;;;;;;;13.80;99.90;;;;;;5073304;28;19912;-68
2021/07/23 09:33:12;;;;;;;;;;;13.80;99.90;;;;;;5073462;28;19915;-68
2021/07/23 09:35:58;;;;;;;;;;;13.70;99.90;;;;;;5072899;28;20248;-68
2021/07/23 09:38:27;;;;;;;;;;;13.70;99.90;;;;;;5072697;28;19958;-68
2021/07/23 09:40:53;;;;;;;;;;;13.70;99.90;;;;;;5073153;28;19909;-68
2021/07/23 09:43:32;;;;;;;;;;;13.70;99.90;;;;;;5072725;28;19912;-69
2021/07/23 09:46:19;;;;;;;;;;;13.70;99.90;;;;;;5071764;28;19909;-67
2021/07/23 09:48:46;;;;;;;;;;;13.60;99.90;;;;;;5070291;28;19915;-69
2021/07/23 09:51:13;;;;;;;;;;;13.60;99.90;;;;;;5070805;28;19915;-67
2021/07/23 09:53:40;;;;;;;;;;;13.60;99.90;;;;;;5070805;28;19932;-67
2021/07/23 09:56:08;;;;;;;;;;;13.50;99.90;;;;;;5070835;28;19952;-66
2021/07/23 09:58:40;;;;;;;;;;;13.50;99.90;;;;;;5070747;28;20275;-67
2021/07/23 10:01:11;;;;;;;;;;;13.50;99.90;;;;;;5070147;28;19909;-68
2021/07/23 10:03:40;;;;;;;;;;;13.40;99.90;;;;;;5070492;28;20023;-67
2021/07/23 10:06:07;;;;;;;;;;;13.20;99.90;;;;;;5070518;28;19913;-66
2021/07/23 10:08:35;;;;;;;;;;;13.20;99.90;;;;;;5070543;28;20389;-67
2021/07/23 10:11:03;;;;;;;;;;;13.10;99.90;;;;;;5070619;28;20003;-68
2021/07/23 10:13:30;;;;;;;;;;;13.20;99.90;;;;;;5070045;28;19908;-67
2021/07/23 10:15:57;;;;;;;;;;;13.10;99.90;;;;;;5070396;28;20367;-66
2021/07/23 10:18:24;;;;;;;;;;;13.10;99.90;;;;;;5070422;28;20259;-66
2021/07/23 10:20:51;;;;;;;;;;;13.10;99.90;;;;;;5070291;28;20260;-66
2021/07/23 10:23:22;;;;;;;;;;;13.10;99.90;;;;;;5070506;28;19961;-69
2021/07/23 10:25:53;;;;;;;;;;;13.30;99.90;;;;;;5069966;28;19958;-68
2021/07/23 10:28:42;;;;;;;;;;;13.20;99.90;;;;;;5070529;28;20014;-68
2021/07/23 10:31:18;;;;;;;;;;;13.20;99.90;;;;;;5070395;28;19909;-68
2021/07/23 10:33:52;;;;;;;;;;;13.20;99.90;;;;;;5070140;28;19915;-68
2021/07/23 10:36:39;;;;;;;;;;;13.30;99.90;;;;;;5070148;28;19909;-68
2021/07/23 10:39:05;;;;;;;;;;;13.20;99.90;;;;;;5069684;28;19921;-65
2021/07/23 10:41:36;;;;;;;;;;;13.20;99.90;;;;;;5069963;28;19913;-65
2021/07/23 10:44:04;;;;;;;;;;;13.20;99.90;;;;;;5070198;28;19924;-67
2021/07/23 10:46:50;;;;;;;;;;;13.20;99.90;;;;;;5102508;28;20007;-68
2021/07/23 10:49:32;;;;;;;;;;;13.20;99.90;;;;;;5065981;28;19908;-67
2021/07/23 10:52:03;;;;;;;;;;;13.20;99.90;;;;;;5069825;28;20026;-66
2021/07/23 10:54:34;;;;;;;;;;;13.20;99.90;;;;;;5070165;28;19919;-67
2021/07/23 10:57:04;;;;;;;;;;;13.30;99.90;;;;;;5070100;28;19912;-67
2021/07/23 10:59:40;;;;;;;;;;;13.30;99.90;;;;;;5069823;28;19916;-67
2021/07/23 11:02:08;;;;;;;;;;;13.30;99.90;;;;;;5069980;28;19912;-65
2021/07/23 11:04:34;;;;;;;;;;;13.30;99.90;;;;;;5069685;28;19908;-67
2021/07/23 11:07:02;;;;;;;;;;;13.30;99.90;;;;;;5069755;28;20435;-67
2021/07/23 11:09:32;;;;;;;;;;;13.40;99.90;;;;;;5070186;28;19933;-67
2021/07/23 11:12:13;;;;;;;;;;;13.40;99.90;;;;;;5070042;28;19916;-67
2021/07/23 11:14:41;;;;;;;;;;;13.40;99.90;;;;;;5069861;28;19999;-65
2021/07/23 11:17:08;;;;;;;;;;;13.40;99.90;;;;;;5070030;28;19954;-67
2021/07/23 11:19:35;;;;;;;;;;;13.40;99.90;;;;;;5069083;28;19917;-66
2021/07/23 11:22:02;;;;;;;;;;;13.40;99.90;;;;;;5069987;28;19915;-67
2021/07/23 11:24:35;;;;;;;;;;;13.30;99.90;;;;;;5069844;28;19913;-66
2021/07/23 11:27:02;;;;;;;;;;;13.30;99.90;;;;;;5070218;28;19908;-66
2021/07/23 11:29:30;;;;;;;;;;;13.30;99.90;;;;;;5069947;28;20433;-66
2021/07/23 11:32:07;;;;;;;;;;;13.30;99.90;;;;;;5069378;28;19917;-66
2021/07/23 11:34:39;;;;;;;;;;;13.30;99.90;;;;;;5069673;28;19908;-68
2021/07/23 11:37:13;;;;;;;;;;;13.30;99.90;;;;;;5069782;28;19999;-66
2021/07/23 11:39:58;;;;;;;;;;;13.30;99.90;;;;;;5069459;28;19992;-66
2021/07/23 11:42:27;;;;;;;;;;;13.30;99.90;;;;;;5069623;28;19908;-66
2021/07/23 11:44:55;;;;;;;;;;;13.30;99.90;;;;;;5069093;28;20329;-66
2021/07/23 11:47:29;;;;;;;;;;;13.30;99.90;;;;;;5069520;28;20011;-66
2021/07/23 11:49:56;;;;;;;;;;;13.30;99.90;;;;;;5104979;28;20745;-66
2021/07/23 11:52:23;;;;;;;;;;;13.30;99.90;;;;;;5073222;28;19909;-67
2021/07/23 11:55:00;;;;;;;;;;;13.30;99.90;;;;;;5072988;28;19951;-67
2021/07/23 11:57:30;;;;;;;;;;;13.20;99.90;;;;;;5072681;28;19952;-67
2021/07/23 11:59:57;;;;;;;;;;;13.30;99.90;;;;;;5073012;28;19948;-66
2021/07/23 12:02:27;;;;;;;;;;;13.20;99.90;;;;;;5072976;28;19916;-67
2021/07/23 12:05:09;;;;;;;;;;;13.20;99.90;;;;;;5072791;28;19954;-68
2021/07/23 12:07:37;;;;;;;;;;;13.20;99.90;;;;;;5073003;28;20286;-67
2021/07/23 12:10:11;;;;;;;;;;;13.20;99.90;;;;;;5072547;28;19919;-67
2021/07/23 12:12:38;;;;;;;;;;;13.30;99.90;;;;;;5073013;28;19912;-66
2021/07/23 12:15:05;;;;;;;;;;;13.20;99.90;;;;;;5072888;28;20018;-67
2021/07/23 12:17:31;;;;;;;;;;;13.30;99.90;;;;;;5072397;28;19919;-67
2021/07/23 12:19:58;;;;;;;;;;;13.30;99.90;;;;;;5072585;28;19935;-66
2021/07/23 12:22:25;;;;;;;;;;;13.30;99.90;;;;;;5072638;28;19912;-69
2021/07/23 12:24:51;;;;;;;;;;;13.30;99.90;;;;;;5104596;28;19916;-69
2021/07/23 12:27:19;;;;;;;;;;;13.30;99.90;;;;;;5072530;28;19908;-67
2021/07/23 12:29:46;;;;;;;;;;;13.30;99.90;;;;;;5072167;28;19916;-67
2021/07/23 12:32:22;;;;;;;;;;;13.30;99.90;;;;;;5072490;28;19943;-67
2021/07/23 12:34:58;;;;;;;;;;;13.30;99.90;;;;;;5072152;28;19912;-68
2021/07/23 12:37:25;;;;;;;;;;;13.30;99.90;;;;;;5071719;28;19950;-68
2021/07/23 12:39:53;;;;;;;;;;;13.30;99.90;;;;;;5072063;28;19913;-66
2021/07/23 12:42:20;;;;;;;;;;;13.30;99.90;;;;;;5072326;28;19913;-66
2021/07/23 12:44:47;;;;;;;;;;;13.30;99.90;;;;;;5072011;28;19928;-66
2021/07/23 12:47:17;;;;;;;;;;;13.30;99.90;;;;;;5072293;28;20387;-67
2021/07/23 12:49:44;;;;;;;;;;;13.30;99.90;;;;;;5071518;28;20473;-66
2021/07/23 12:52:11;;;;;;;;;;;13.30;99.90;;;;;;5072250;28;19938;-67
2021/07/23 12:54:42;;;;;;;;;;;13.30;99.90;;;;;;5072074;28;19934;-66
2021/07/23 12:57:12;;;;;;;;;;;13.30;99.90;;;;;;5071963;28;19931;-66
2021/07/23 12:59:39;;;;;;;;;;;13.30;99.90;;;;;;5070626;28;19921;-67
2021/07/23 13:02:09;;;;;;;;;;;13.30;99.90;;;;;;5071871;28;19908;-68
2021/07/23 13:04:35;;;;;;;;;;;13.30;99.90;;;;;;5071241;28;19920;-69
2021/07/23 13:07:02;;;;;;;;;;;13.30;99.90;;;;;;5071808;28;20403;-66
2021/07/23 13:09:30;;;;;;;;;;;13.30;99.90;;;;;;5071662;28;19912;-66
2021/07/23 13:11:59;;;;;;;;;;;13.30;99.90;;;;;;5071759;28;19912;-67
2021/07/23 13:14:26;;;;;;;;;;;13.30;99.90;;;;;;5071468;28;19915;-68
2021/07/23 13:16:52;;;;;;;;;;;13.30;99.90;;;;;;5070920;28;20245;-68
2021/07/23 13:19:19;;;;;;;;;;;13.20;99.90;;;;;;5071218;28;19924;-68
2021/07/23 13:21:48;;;;;;;;;;;13.20;99.90;;;;;;5071310;28;19908;-66
2021/07/23 13:24:15;;;;;;;;;;;13.20;99.90;;;;;;5071361;28;19912;-68
2021/07/23 13:26:42;;;;;;;;;;;13.20;99.90;;;;;;5071465;28;19908;-69
2021/07/23 13:29:10;;;;;;;;;;;13.20;99.90;;;;;;5103412;28;20327;-67
2021/07/23 13:31:37;;;;;;;;;;;13.20;99.90;;;;;;5071075;28;19913;-67
2021/07/23 13:34:04;;;;;;;;;;;13.30;99.90;;;;;;5070718;28;19912;-68
2021/07/23 13:36:36;;;;;;;;;;;13.20;99.90;;;;;;5071694;28;19969;-68
2021/07/23 13:39:11;;;;;;;;;;;13.20;99.90;;;;;;5071009;28;19916;-66
2021/07/23 13:41:38;;;;;;;;;;;13.20;99.90;;;;;;5070445;28;19913;-66
2021/07/23 13:44:09;;;;;;;;;;;13.20;99.90;;;;;;5070884;28;20298;-66
2021/07/23 13:46:37;;;;;;;;;;;13.20;99.90;;;;;;5070793;28;19916;-66
2021/07/23 13:49:05;;;;;;;;;;;13.20;99.90;;;;;;5070661;28;19917;-66
2021/07/23 13:51:32;;;;;;;;;;;13.20;99.90;;;;;;5070815;28;20004;-66
2021/07/23 13:54:01;;;;;;;;;;;13.20;99.90;;;;;;5071001;28;19962;-68
2021/07/23 13:56:31;;;;;;;;;;;13.20;99.90;;;;;;5070590;28;19912;-66
2021/07/23 13:59:01;;;;;;;;;;;13.10;99.90;;;;;;5070937;28;19923;-66
2021/07/23 14:01:29;;;;;;;;;;;13.10;99.90;;;;;;5070573;28;19916;-67
2021/07/23 14:03:55;;;;;;;;;;;13.00;99.90;;;;;;5070544;28;20282;-66
2021/07/23 14:06:22;;;;;;;;;;;13.00;99.90;;;;;;5070622;28;19908;-66
2021/07/23 14:08:49;;;;;;;;;;;13.00;99.90;;;;;;5070309;28;19914;-67
2021/07/23 14:11:15;;;;;;;;;;;13.00;99.90;;;;;;5069863;28;19912;-67
2021/07/23 14:13:42;;;;;;;;;;;13.00;99.90;;;;;;5070286;28;19920;-67
2021/07/23 14:16:09;;;;;;;;;;;13.00;99.90;;;;;;5070623;28;19989;-68
2021/07/23 14:18:38;;;;;;;;;;;13.00;99.90;;;;;;5070234;28;19952;-66
2021/07/23 14:21:05;;;;;;;;;;;13.00;99.90;;;;;;5070105;28;19916;-66